Salinas Municipal Airport
KSNS : rendu visible

Aérodrome :











RETROUVEZ-NOUS SUR...

 
LOGIN :

S'inscrire | Disclaimer

   EN    FR    IT 

 









Légende :    VFR   VFR Marginal   IFR   IFR Intensif   IFR Très Intensif
Visi : 
Plafond : 
>= 8 km
>= 3000ft
5 à 8 km
1000 à 3000 ft
1500m à 5 km
500 à 1000 ft
800 à 1500m
200 à 500 ft
< 800m
< 200 ft
Symboles :   Orages  Brouillard  Fortes neiges  Fortes précipitations  Vent > 20 kt






- Altitude de l'aérodrome : 85 ft


KSNS - Salinas Municipal

DERNIER METAR :
  • 220553Z AUTO 35006KT 10SM CLR 16/13 A2997 RMK AO2 SLP157 T01610133 10194 20161 53008

METARs EXPIRÉS :
  • 220453Z AUTO 35006KT 10SM CLR 17/13 A2996 RMK AO2 SLP153 T01670133
  • 220353Z AUTO 35009KT 10SM CLR 17/13 A2995 RMK AO2 SLP152 T01720133

TAF KSNS
Valide du 22 à 06h jusqu'au 23 à 06h UTC


220531Z 2206/2306 34006KT P6SM SKC
FM221000 VRB03KT 6SM BR OVC008
FM221200 VRB03KT 3SM BR OVC003
FM221700 VRB04KT 6SM HZ SCT006
FM221900 29009KT P6SM SKC
FM230500 31006KT P6SM FEW012
FIR KZOA / Amérique du Nord



MET'MAP, la Météo Aéronautique d'un coup d'oeil ! - Copyright ORBIFLY Décembre 2007 - Disclaimer

ORBIFLY MET'MAP TEAM :

Programmation & Développement : Alexandra Zaïnal
Sur une idée originale de : Baudouin d'Aumeries
Assistance à la programmation : Marc-Olivier Méhu
Soutien technique & logistique : Manuel Goepfert

Contact : metmap@orbifly.com




SOURCES & CREDITS :

   NOAA       Earth
Advisory